General Aviation Weather

Text Reports

Enter one or more of the following location identifiers separated by a space:

Zip Code, Four-Character ICAO or Three-Character IATA airport codes.

METAR - Aviation Routine Weather Report
KLXV - Leadville, Colorado
Updated at 1:53 AM GMT on April 28, 2015 (7:53 PM MDT):
METAR KLXV 280153Z AUTO 19006KT 10SM OVC050 01/M03 A3027 RMK AO2 SLP191 T00111028
TAF - Terminal Area Forecast
KLXV - Leadville, Colorado
Updated at 1:53 AM GMT on April 28, 2015 (7:53 PM MDT):
No TAF is currently available for this location.
Decoded:
No decoded TAF is available.
PIREP - Pilot Weather Report
KLXV - Leadville, Colorado
Updated at 1:53 AM GMT on April 28, 2015 (7:53 PM MDT):
No PIREP is currently available for this location.
AIRMET - Airmens Meteorological Information
KLXV - Leadville, Colorado
Updated at 1:53 AM GMT on April 28, 2015 (7:53 PM MDT):
No AIRMET is currently available for this location.
SIGMET - Significant Meteorological Information
KLXV - Leadville, Colorado
Updated at 1:53 AM GMT on April 28, 2015 (7:53 PM MDT):
No SIGMET is currently available for this location.
NOTAM - Notice to Airmen
KLXV - Leadville, Colorado
Updated at 1:53 AM GMT on April 28, 2015 (7:53 PM MDT):
No NOTAM is currently available for this location.
Forecast Area
KLXV - Leadville, Colorado
Updated at 1:53 AM GMT on April 28, 2015 (7:53 PM MDT):
No NOTAM is currently available for this location.
Aviation Weather Maps